sensor_id;sensor_type;location;lat;lon;timestamp;pressure;altitude;pressure_sealevel;temperature;humidity
36964;BME280;22878;48.616;35.326;2023-02-28T00:00:50;101692.84;;;2.32;100.00
36964;BME280;22878;48.616;35.326;2023-02-28T00:03:16;101701.14;;;2.32;100.00
36964;BME280;22878;48.616;35.326;2023-02-28T00:05:41;101703.75;;;2.31;100.00
36964;BME280;22878;48.616;35.326;2023-02-28T00:08:07;101707.77;;;2.33;100.00
36964;BME280;22878;48.616;35.326;2023-02-28T00:10:33;101707.98;;;2.31;100.00
36964;BME280;22878;48.616;35.326;2023-02-28T00:13:04;101705.91;;;2.30;100.00
36964;BME280;22878;48.616;35.326;2023-02-28T00:15:31;101694.21;;;2.27;100.00
36964;BME280;22878;48.616;35.326;2023-02-28T00:17:57;101698.05;;;2.23;100.00
36964;BME280;22878;48.616;35.326;2023-02-28T00:20:23;101701.95;;;2.22;100.00
36964;BME280;22878;48.616;35.326;2023-02-28T00:22:51;101706.70;;;2.22;100.00
36964;BME280;22878;48.616;35.326;2023-02-28T00:25:19;101717.20;;;2.21;100.00
36964;BME280;22878;48.616;35.326;2023-02-28T00:27:47;101721.17;;;2.21;100.00
36964;BME280;22878;48.616;35.326;2023-02-28T00:30:16;101714.02;;;2.22;100.00
36964;BME280;22878;48.616;35.326;2023-02-28T00:32:42;101709.95;;;2.18;100.00
36964;BME280;22878;48.616;35.326;2023-02-28T00:35:09;101707.67;;;2.17;100.00
36964;BME280;22878;48.616;35.326;2023-02-28T00:37:35;101701.16;;;2.16;100.00
36964;BME280;22878;48.616;35.326;2023-02-28T00:40:01;101701.45;;;2.14;100.00
36964;BME280;22878;48.616;35.326;2023-02-28T00:42:29;101713.67;;;2.14;100.00
36964;BME280;22878;48.616;35.326;2023-02-28T00:44:55;101717.17;;;2.13;100.00
36964;BME280;22878;48.616;35.326;2023-02-28T00:47:20;101710.23;;;2.11;100.00
36964;BME280;22878;48.616;35.326;2023-02-28T00:49:46;101712.13;;;2.07;100.00
36964;BME280;22878;48.616;35.326;2023-02-28T00:52:12;101722.50;;;2.05;100.00
36964;BME280;22878;48.616;35.326;2023-02-28T00:54:37;101729.08;;;2.06;100.00
36964;BME280;22878;48.616;35.326;2023-02-28T00:57:03;101730.35;;;2.04;100.00
36964;BME280;22878;48.616;35.326;2023-02-28T00:59:28;101739.11;;;2.01;100.00
36964;BME280;22878;48.616;35.326;2023-02-28T01:01:54;101743.60;;;2.00;100.00
36964;BME280;22878;48.616;35.326;2023-02-28T01:04:19;101744.67;;;1.98;100.00
36964;BME280;22878;48.616;35.326;2023-02-28T01:06:45;101736.58;;;1.96;100.00
36964;BME280;22878;48.616;35.326;2023-02-28T01:09:11;101729.06;;;1.97;100.00
36964;BME280;22878;48.616;35.326;2023-02-28T01:11:37;101725.55;;;1.95;100.00
36964;BME280;22878;48.616;35.326;2023-02-28T01:14:03;101728.48;;;1.95;100.00
36964;BME280;22878;48.616;35.326;2023-02-28T01:16:29;101733.28;;;1.91;100.00
36964;BME280;22878;48.616;35.326;2023-02-28T01:18:56;101724.96;;;1.90;100.00
36964;BME280;22878;48.616;35.326;2023-02-28T01:21:21;101726.60;;;1.86;100.00
36964;BME280;22878;48.616;35.326;2023-02-28T01:23:48;101738.52;;;1.83;100.00
36964;BME280;22878;48.616;35.326;2023-02-28T01:26:16;101746.56;;;1.80;100.00
36964;BME280;22878;48.616;35.326;2023-02-28T01:28:42;101755.35;;;1.82;100.00
36964;BME280;22878;48.616;35.326;2023-02-28T01:31:08;101764.19;;;1.81;100.00
36964;BME280;22878;48.616;35.326;2023-02-28T01:33:34;101760.88;;;1.80;100.00
36964;BME280;22878;48.616;35.326;2023-02-28T01:36:03;101764.46;;;1.80;100.00
36964;BME280;22878;48.616;35.326;2023-02-28T01:38:29;101766.29;;;1.75;100.00
36964;BME280;22878;48.616;35.326;2023-02-28T01:40:55;101766.82;;;1.72;100.00
36964;BME280;22878;48.616;35.326;2023-02-28T01:43:24;101763.85;;;1.68;100.00
36964;BME280;22878;48.616;35.326;2023-02-28T01:45:52;101764.98;;;1.68;100.00
36964;BME280;22878;48.616;35.326;2023-02-28T01:48:19;101770.36;;;1.67;100.00
36964;BME280;22878;48.616;35.326;2023-02-28T01:50:47;101773.95;;;1.67;100.00
36964;BME280;22878;48.616;35.326;2023-02-28T01:53:16;101775.55;;;1.70;100.00
36964;BME280;22878;48.616;35.326;2023-02-28T01:55:47;101772.38;;;1.68;100.00
36964;BME280;22878;48.616;35.326;2023-02-28T01:58:14;101774.25;;;1.64;100.00
36964;BME280;22878;48.616;35.326;2023-02-28T02:00:40;101776.59;;;1.62;100.00
36964;BME280;22878;48.616;35.326;2023-02-28T02:03:13;101782.00;;;1.61;100.00
36964;BME280;22878;48.616;35.326;2023-02-28T02:05:41;101776.55;;;1.59;100.00
36964;BME280;22878;48.616;35.326;2023-02-28T02:08:10;101766.11;;;1.58;100.00
36964;BME280;22878;48.616;35.326;2023-02-28T02:10:52;101758.15;;;1.56;100.00
36964;BME280;22878;48.616;35.326;2023-02-28T02:27:16;101768.05;;;1.42;100.00
36964;BME280;22878;48.616;35.326;2023-02-28T02:30:08;101775.17;;;1.37;100.00
36964;BME280;22878;48.616;35.326;2023-02-28T02:40:56;101799.67;;;1.34;100.00
36964;BME280;22878;48.616;35.326;2023-02-28T02:43:29;101802.44;;;1.32;100.00
36964;BME280;22878;48.616;35.326;2023-02-28T02:46:27;101809.77;;;1.34;100.00
36964;BME280;22878;48.616;35.326;2023-02-28T02:48:51;101813.33;;;1.34;100.00
36964;BME280;22878;48.616;35.326;2023-02-28T02:51:22;101821.03;;;1.32;100.00
36964;BME280;22878;48.616;35.326;2023-02-28T02:53:55;101826.33;;;1.33;100.00
36964;BME280;22878;48.616;35.326;2023-02-28T02:56:25;101832.56;;;1.35;100.00
36964;BME280;22878;48.616;35.326;2023-02-28T02:58:55;101836.00;;;1.32;100.00
36964;BME280;22878;48.616;35.326;2023-02-28T03:01:25;101839.67;;;1.30;100.00
36964;BME280;22878;48.616;35.326;2023-02-28T03:04:02;101849.37;;;1.30;100.00
36964;BME280;22878;48.616;35.326;2023-02-28T03:06:28;101849.40;;;1.29;100.00
36964;BME280;22878;48.616;35.326;2023-02-28T03:08:54;101851.29;;;1.28;100.00
36964;BME280;22878;48.616;35.326;2023-02-28T03:11:19;101854.63;;;1.27;100.00
36964;BME280;22878;48.616;35.326;2023-02-28T03:13:55;101856.77;;;1.25;100.00
36964;BME280;22878;48.616;35.326;2023-02-28T03:16:35;101856.28;;;1.20;100.00
36964;BME280;22878;48.616;35.326;2023-02-28T03:19:24;101855.09;;;1.18;100.00
36964;BME280;22878;48.616;35.326;2023-02-28T03:27:23;101870.61;;;1.13;100.00
36964;BME280;22878;48.616;35.326;2023-02-28T03:30:10;101877.35;;;1.12;100.00
36964;BME280;22878;48.616;35.326;2023-02-28T03:32:45;101883.56;;;1.08;100.00
36964;BME280;22878;48.616;35.326;2023-02-28T03:35:22;101885.67;;;1.05;100.00
36964;BME280;22878;48.616;35.326;2023-02-28T03:38:22;101890.23;;;1.04;100.00
36964;BME280;22878;48.616;35.326;2023-02-28T03:41:06;101888.41;;;1.03;100.00
36964;BME280;22878;48.616;35.326;2023-02-28T03:43:36;101892.11;;;1.01;100.00
36964;BME280;22878;48.616;35.326;2023-02-28T03:46:08;101890.66;;;1.00;100.00
36964;BME280;22878;48.616;35.326;2023-02-28T03:48:40;101892.38;;;0.97;100.00
36964;BME280;22878;48.616;35.326;2023-02-28T03:51:10;101889.63;;;0.95;100.00
36964;BME280;22878;48.616;35.326;2023-02-28T03:53:42;101890.45;;;0.89;100.00
36964;BME280;22878;48.616;35.326;2023-02-28T03:56:17;101893.05;;;0.87;100.00
36964;BME280;22878;48.616;35.326;2023-02-28T04:01:40;101891.77;;;0.93;100.00
36964;BME280;22878;48.616;35.326;2023-02-28T04:04:08;101895.48;;;0.95;100.00
36964;BME280;22878;48.616;35.326;2023-02-28T04:06:35;101893.70;;;0.93;100.00
36964;BME280;22878;48.616;35.326;2023-02-28T04:09:01;101889.15;;;0.93;100.00
36964;BME280;22878;48.616;35.326;2023-02-28T04:11:29;101886.39;;;0.90;100.00
36964;BME280;22878;48.616;35.326;2023-02-28T04:13:56;101886.95;;;0.87;100.00
36964;BME280;22878;48.616;35.326;2023-02-28T04:16:21;101888.70;;;0.85;100.00
36964;BME280;22878;48.616;35.326;2023-02-28T04:18:47;101893.99;;;0.85;100.00
36964;BME280;22878;48.616;35.326;2023-02-28T04:21:12;101898.20;;;0.84;100.00
36964;BME280;22878;48.616;35.326;2023-02-28T04:23:38;101905.95;;;0.83;100.00
36964;BME280;22878;48.616;35.326;2023-02-28T04:26:04;101905.39;;;0.81;100.00
36964;BME280;22878;48.616;35.326;2023-02-28T04:28:31;101911.32;;;0.80;100.00
36964;BME280;22878;48.616;35.326;2023-02-28T04:31:02;101912.61;;;0.80;100.00
36964;BME280;22878;48.616;35.326;2023-02-28T04:33:30;101910.42;;;0.80;100.00
36964;BME280;22878;48.616;35.326;2023-02-28T04:38:25;101929.63;;;0.81;100.00
36964;BME280;22878;48.616;35.326;2023-02-28T04:40:50;101936.13;;;0.82;100.00
36964;BME280;22878;48.616;35.326;2023-02-28T04:43:16;101941.38;;;0.84;100.00
36964;BME280;22878;48.616;35.326;2023-02-28T04:45:41;101944.67;;;0.88;100.00
36964;BME280;22878;48.616;35.326;2023-02-28T04:48:07;101942.98;;;0.90;100.00
36964;BME280;22878;48.616;35.326;2023-02-28T04:50:32;101942.66;;;0.92;100.00
36964;BME280;22878;48.616;35.326;2023-02-28T04:52:58;101950.79;;;0.96;100.00
36964;BME280;22878;48.616;35.326;2023-02-28T04:55:23;101951.71;;;0.90;100.00
36964;BME280;22878;48.616;35.326;2023-02-28T04:57:49;101950.71;;;0.89;100.00
36964;BME280;22878;48.616;35.326;2023-02-28T05:00:15;101955.09;;;0.90;100.00
36964;BME280;22878;48.616;35.326;2023-02-28T05:02:42;101955.42;;;0.90;100.00
36964;BME280;22878;48.616;35.326;2023-02-28T05:05:07;101958.36;;;0.96;100.00
36964;BME280;22878;48.616;35.326;2023-02-28T05:07:33;101957.18;;;1.00;100.00
36964;BME280;22878;48.616;35.326;2023-02-28T05:09:58;101960.60;;;1.05;100.00
36964;BME280;22878;48.616;35.326;2023-02-28T05:12:24;101964.19;;;1.04;100.00
36964;BME280;22878;48.616;35.326;2023-02-28T05:14:50;101962.02;;;1.03;100.00
36964;BME280;22878;48.616;35.326;2023-02-28T05:17:15;101967.34;;;0.94;100.00
36964;BME280;22878;48.616;35.326;2023-02-28T05:19:41;101966.86;;;0.87;100.00
36964;BME280;22878;48.616;35.326;2023-02-28T05:22:13;101970.51;;;0.84;100.00
36964;BME280;22878;48.616;35.326;2023-02-28T05:24:40;101981.41;;;0.80;100.00
36964;BME280;22878;48.616;35.326;2023-02-28T05:27:08;101988.31;;;0.82;100.00
36964;BME280;22878;48.616;35.326;2023-02-28T05:29:33;101989.19;;;0.80;100.00
36964;BME280;22878;48.616;35.326;2023-02-28T05:31:59;101988.70;;;0.80;100.00
36964;BME280;22878;48.616;35.326;2023-02-28T05:34:25;101991.68;;;0.80;100.00
36964;BME280;22878;48.616;35.326;2023-02-28T05:36:50;101985.30;;;0.78;100.00
36964;BME280;22878;48.616;35.326;2023-02-28T05:39:16;101977.69;;;0.79;100.00
36964;BME280;22878;48.616;35.326;2023-02-28T05:41:42;101973.70;;;0.79;100.00
36964;BME280;22878;48.616;35.326;2023-02-28T05:44:09;101974.08;;;0.81;100.00
36964;BME280;22878;48.616;35.326;2023-02-28T05:46:34;101974.20;;;0.86;100.00
36964;BME280;22878;48.616;35.326;2023-02-28T05:49:00;101974.95;;;0.89;100.00
36964;BME280;22878;48.616;35.326;2023-02-28T05:51:26;101974.39;;;0.97;100.00
36964;BME280;22878;48.616;35.326;2023-02-28T05:53:51;101973.92;;;1.02;100.00
36964;BME280;22878;48.616;35.326;2023-02-28T05:56:17;101974.16;;;1.05;100.00
36964;BME280;22878;48.616;35.326;2023-02-28T05:58:42;101975.30;;;1.11;100.00
36964;BME280;22878;48.616;35.326;2023-02-28T06:03:50;101985.94;;;1.18;100.00
36964;BME280;22878;48.616;35.326;2023-02-28T06:06:16;101984.48;;;1.23;100.00
36964;BME280;22878;48.616;35.326;2023-02-28T06:08:41;101989.81;;;1.33;100.00
36964;BME280;22878;48.616;35.326;2023-02-28T06:11:08;101993.36;;;1.41;100.00
36964;BME280;22878;48.616;35.326;2023-02-28T06:13:34;101997.63;;;1.46;100.00
36964;BME280;22878;48.616;35.326;2023-02-28T06:16:02;102006.16;;;1.50;100.00
36964;BME280;22878;48.616;35.326;2023-02-28T06:18:28;102009.48;;;1.56;100.00
36964;BME280;22878;48.616;35.326;2023-02-28T06:20:54;102005.27;;;1.64;100.00
36964;BME280;22878;48.616;35.326;2023-02-28T06:23:20;102003.02;;;1.66;100.00
36964;BME280;22878;48.616;35.326;2023-02-28T06:25:47;102009.53;;;1.70;100.00
36964;BME280;22878;48.616;35.326;2023-02-28T06:28:13;102008.04;;;1.76;100.00
36964;BME280;22878;48.616;35.326;2023-02-28T06:30:38;102010.92;;;1.83;100.00
36964;BME280;22878;48.616;35.326;2023-02-28T06:33:04;102012.05;;;1.79;100.00
36964;BME280;22878;48.616;35.326;2023-02-28T06:35:30;102008.52;;;1.77;100.00
36964;BME280;22878;48.616;35.326;2023-02-28T06:37:56;102003.91;;;1.89;100.00
36964;BME280;22878;48.616;35.326;2023-02-28T06:40:21;102006.75;;;1.97;100.00
36964;BME280;22878;48.616;35.326;2023-02-28T06:42:47;102001.98;;;2.08;100.00
36964;BME280;22878;48.616;35.326;2023-02-28T06:45:12;102004.78;;;2.25;100.00
36964;BME280;22878;48.616;35.326;2023-02-28T06:47:40;102001.61;;;2.42;100.00
36964;BME280;22878;48.616;35.326;2023-02-28T06:50:10;102001.45;;;2.58;100.00
36964;BME280;22878;48.616;35.326;2023-02-28T06:52:36;102007.30;;;2.77;100.00
36964;BME280;22878;48.616;35.326;2023-02-28T06:55:04;102010.79;;;3.04;100.00
36964;BME280;22878;48.616;35.326;2023-02-28T06:57:32;102013.52;;;3.27;100.00
36964;BME280;22878;48.616;35.326;2023-02-28T06:59:59;102015.92;;;3.53;100.00
36964;BME280;22878;48.616;35.326;2023-02-28T07:02:25;102016.96;;;3.69;100.00
36964;BME280;22878;48.616;35.326;2023-02-28T07:04:51;102021.27;;;3.84;100.00
36964;BME280;22878;48.616;35.326;2023-02-28T07:07:16;102023.98;;;3.88;100.00
36964;BME280;22878;48.616;35.326;2023-02-28T07:09:42;102022.08;;;4.00;100.00
36964;BME280;22878;48.616;35.326;2023-02-28T07:12:08;102023.46;;;4.13;100.00
36964;BME280;22878;48.616;35.326;2023-02-28T07:14:33;102028.31;;;4.12;100.00
36964;BME280;22878;48.616;35.326;2023-02-28T07:16:59;102030.89;;;4.03;100.00
36964;BME280;22878;48.616;35.326;2023-02-28T07:19:25;102035.40;;;4.14;100.00
36964;BME280;22878;48.616;35.326;2023-02-28T07:21:50;102033.50;;;4.38;100.00
36964;BME280;22878;48.616;35.326;2023-02-28T07:24:16;102031.00;;;4.46;100.00
36964;BME280;22878;48.616;35.326;2023-02-28T07:26:43;102032.39;;;4.46;100.00
36964;BME280;22878;48.616;35.326;2023-02-28T07:29:08;102031.71;;;4.44;100.00
36964;BME280;22878;48.616;35.326;2023-02-28T07:31:34;102031.17;;;4.30;100.00
36964;BME280;22878;48.616;35.326;2023-02-28T07:34:00;102023.36;;;4.23;100.00
36964;BME280;22878;48.616;35.326;2023-02-28T07:36:26;102017.88;;;4.30;100.00
36964;BME280;22878;48.616;35.326;2023-02-28T07:38:51;102014.82;;;4.75;100.00
36964;BME280;22878;48.616;35.326;2023-02-28T07:41:19;102019.13;;;5.33;100.00
36964;BME280;22878;48.616;35.326;2023-02-28T07:43:45;102019.81;;;5.75;100.00
36964;BME280;22878;48.616;35.326;2023-02-28T07:46:13;102016.04;;;6.28;100.00
36964;BME280;22878;48.616;35.326;2023-02-28T07:48:43;102016.55;;;6.91;100.00
36964;BME280;22878;48.616;35.326;2023-02-28T07:51:10;102015.04;;;7.34;100.00
36964;BME280;22878;48.616;35.326;2023-02-28T07:53:35;102014.39;;;6.99;100.00
36964;BME280;22878;48.616;35.326;2023-02-28T07:56:02;102014.77;;;6.69;100.00
36964;BME280;22878;48.616;35.326;2023-02-28T07:58:29;102016.83;;;6.62;100.00
36964;BME280;22878;48.616;35.326;2023-02-28T08:00:55;102019.65;;;6.84;100.00
36964;BME280;22878;48.616;35.326;2023-02-28T08:03:22;102015.71;;;7.02;100.00
36964;BME280;22878;48.616;35.326;2023-02-28T08:05:49;102018.79;;;7.07;100.00
36964;BME280;22878;48.616;35.326;2023-02-28T08:08:15;102015.77;;;6.73;100.00
36964;BME280;22878;48.616;35.326;2023-02-28T08:10:42;102018.04;;;6.50;100.00
36964;BME280;22878;48.616;35.326;2023-02-28T08:13:08;102021.89;;;6.40;100.00
36964;BME280;22878;48.616;35.326;2023-02-28T08:15:33;102025.77;;;6.20;100.00
36964;BME280;22878;48.616;35.326;2023-02-28T08:17:59;102030.27;;;5.97;100.00
36964;BME280;22878;48.616;35.326;2023-02-28T08:20:26;102032.60;;;5.74;100.00
36964;BME280;22878;48.616;35.326;2023-02-28T08:22:52;102035.13;;;5.79;100.00
36964;BME280;22878;48.616;35.326;2023-02-28T08:25:18;102036.89;;;5.85;100.00
36964;BME280;22878;48.616;35.326;2023-02-28T08:27:43;102036.47;;;5.80;100.00
36964;BME280;22878;48.616;35.326;2023-02-28T08:30:11;102035.67;;;5.81;100.00
36964;BME280;22878;48.616;35.326;2023-02-28T08:32:37;102034.10;;;5.85;100.00
36964;BME280;22878;48.616;35.326;2023-02-28T08:35:04;102037.84;;;6.05;100.00
36964;BME280;22878;48.616;35.326;2023-02-28T08:37:30;102030.20;;;5.98;100.00
36964;BME280;22878;48.616;35.326;2023-02-28T08:39:56;102032.06;;;5.98;100.00
36964;BME280;22878;48.616;35.326;2023-02-28T08:42:21;102036.89;;;5.82;100.00
36964;BME280;22878;48.616;35.326;2023-02-28T08:44:47;102041.89;;;5.68;100.00
36964;BME280;22878;48.616;35.326;2023-02-28T08:47:12;102042.76;;;5.44;100.00
36964;BME280;22878;48.616;35.326;2023-02-28T08:49:38;102050.50;;;5.11;100.00
36964;BME280;22878;48.616;35.326;2023-02-28T08:52:04;102048.45;;;4.99;100.00
36964;BME280;22878;48.616;35.326;2023-02-28T08:54:29;102047.19;;;4.93;100.00
36964;BME280;22878;48.616;35.326;2023-02-28T08:56:57;102055.20;;;4.77;100.00
36964;BME280;22878;48.616;35.326;2023-02-28T08:59:22;102058.04;;;4.56;100.00
36964;BME280;22878;48.616;35.326;2023-02-28T09:01:48;102056.55;;;4.36;100.00
36964;BME280;22878;48.616;35.326;2023-02-28T09:04:14;102054.58;;;4.30;100.00
36964;BME280;22878;48.616;35.326;2023-02-28T09:06:40;102057.77;;;4.32;100.00
36964;BME280;22878;48.616;35.326;2023-02-28T09:09:05;102059.38;;;4.31;100.00
36964;BME280;22878;48.616;35.326;2023-02-28T09:11:33;102067.84;;;4.22;100.00
36964;BME280;22878;48.616;35.326;2023-02-28T09:14:00;102068.73;;;4.11;100.00
36964;BME280;22878;48.616;35.326;2023-02-28T09:16:29;102073.10;;;4.03;100.00
36964;BME280;22878;48.616;35.326;2023-02-28T09:18:56;102073.43;;;3.88;100.00
36964;BME280;22878;48.616;35.326;2023-02-28T09:21:22;102069.40;;;3.71;100.00
36964;BME280;22878;48.616;35.326;2023-02-28T09:23:49;102067.12;;;3.62;100.00
36964;BME280;22878;48.616;35.326;2023-02-28T09:26:21;102061.32;;;3.62;100.00
36964;BME280;22878;48.616;35.326;2023-02-28T09:28:47;102060.63;;;3.56;100.00
36964;BME280;22878;48.616;35.326;2023-02-28T09:31:16;102059.02;;;3.48;100.00
36964;BME280;22878;48.616;35.326;2023-02-28T09:33:46;102060.98;;;3.57;100.00
36964;BME280;22878;48.616;35.326;2023-02-28T09:36:12;102060.23;;;3.59;100.00
36964;BME280;22878;48.616;35.326;2023-02-28T09:38:37;102054.38;;;3.59;100.00
36964;BME280;22878;48.616;35.326;2023-02-28T09:41:11;102054.08;;;3.65;100.00
36964;BME280;22878;48.616;35.326;2023-02-28T09:43:41;102053.17;;;3.58;100.00
36964;BME280;22878;48.616;35.326;2023-02-28T09:48:44;102048.55;;;3.58;100.00
36964;BME280;22878;48.616;35.326;2023-02-28T09:53:53;102052.23;;;3.79;100.00
36964;BME280;22878;48.616;35.326;2023-02-28T09:56:22;102047.61;;;3.77;100.00
36964;BME280;22878;48.616;35.326;2023-02-28T10:07:07;102048.39;;;4.00;100.00
36964;BME280;22878;48.616;35.326;2023-02-28T10:09:43;102047.01;;;3.98;100.00
36964;BME280;22878;48.616;35.326;2023-02-28T10:12:11;102045.64;;;3.94;100.00
36964;BME280;22878;48.616;35.326;2023-02-28T10:14:43;102046.02;;;3.93;100.00
36964;BME280;22878;48.616;35.326;2023-02-28T10:17:12;102047.12;;;3.97;100.00
36964;BME280;22878;48.616;35.326;2023-02-28T10:24:45;102034.38;;;4.36;100.00
36964;BME280;22878;48.616;35.326;2023-02-28T10:27:19;102036.39;;;4.22;100.00
36964;BME280;22878;48.616;35.326;2023-02-28T10:29:47;102039.33;;;4.10;100.00
36964;BME280;22878;48.616;35.326;2023-02-28T10:32:16;102038.30;;;4.21;100.00
36964;BME280;22878;48.616;35.326;2023-02-28T10:34:42;102035.30;;;4.26;100.00
36964;BME280;22878;48.616;35.326;2023-02-28T10:37:09;102028.31;;;4.25;100.00
36964;BME280;22878;48.616;35.326;2023-02-28T10:39:44;102027.69;;;4.21;100.00
36964;BME280;22878;48.616;35.326;2023-02-28T10:42:31;102024.63;;;4.23;100.00
36964;BME280;22878;48.616;35.326;2023-02-28T10:45:13;102020.46;;;4.27;100.00
36964;BME280;22878;48.616;35.326;2023-02-28T10:47:56;102020.41;;;4.44;100.00
36964;BME280;22878;48.616;35.326;2023-02-28T10:53:07;102016.19;;;4.56;100.00
36964;BME280;22878;48.616;35.326;2023-02-28T10:55:36;102008.88;;;4.60;100.00
36964;BME280;22878;48.616;35.326;2023-02-28T10:58:02;102005.71;;;4.76;100.00
36964;BME280;22878;48.616;35.326;2023-02-28T11:00:34;102006.09;;;4.88;100.00
36964;BME280;22878;48.616;35.326;2023-02-28T11:03:00;102006.51;;;4.89;100.00
36964;BME280;22878;48.616;35.326;2023-02-28T11:05:31;102010.48;;;4.85;100.00
36964;BME280;22878;48.616;35.326;2023-02-28T11:08:16;102009.85;;;4.87;100.00
36964;BME280;22878;48.616;35.326;2023-02-28T11:10:55;102003.80;;;4.75;100.00
36964;BME280;22878;48.616;35.326;2023-02-28T11:13:35;101993.70;;;4.81;100.00
36964;BME280;22878;48.616;35.326;2023-02-28T11:16:09;101991.92;;;5.04;100.00
36964;BME280;22878;48.616;35.326;2023-02-28T11:18:54;101991.05;;;5.11;100.00
36964;BME280;22878;48.616;35.326;2023-02-28T11:21:24;101993.11;;;5.07;100.00
36964;BME280;22878;48.616;35.326;2023-02-28T11:23:57;101992.92;;;4.94;100.00
36964;BME280;22878;48.616;35.326;2023-02-28T11:26:37;101989.59;;;4.81;100.00
36964;BME280;22878;48.616;35.326;2023-02-28T11:29:23;101989.03;;;4.75;100.00
36964;BME280;22878;48.616;35.326;2023-02-28T11:32:12;101991.08;;;4.64;100.00
36964;BME280;22878;48.616;35.326;2023-02-28T11:34:39;101989.80;;;4.48;100.00
36964;BME280;22878;48.616;35.326;2023-02-28T11:37:11;101983.48;;;4.41;100.00
36964;BME280;22878;48.616;35.326;2023-02-28T11:39:37;101976.20;;;4.44;100.00
36964;BME280;22878;48.616;35.326;2023-02-28T11:42:18;101975.80;;;4.47;100.00
36964;BME280;22878;48.616;35.326;2023-02-28T11:48:04;101981.06;;;4.46;100.00
36964;BME280;22878;48.616;35.326;2023-02-28T11:56:00;101982.73;;;4.64;100.00
36964;BME280;22878;48.616;35.326;2023-02-28T12:01:32;101979.87;;;4.58;100.00
36964;BME280;22878;48.616;35.326;2023-02-28T12:04:34;101977.41;;;4.49;100.00
36964;BME280;22878;48.616;35.326;2023-02-28T12:07:15;101978.31;;;4.46;100.00
36964;BME280;22878;48.616;35.326;2023-02-28T12:23:18;101974.27;;;4.66;100.00
36964;BME280;22878;48.616;35.326;2023-02-28T12:25:55;101973.12;;;4.64;100.00
36964;BME280;22878;48.616;35.326;2023-02-28T12:28:32;101965.70;;;4.68;100.00
36964;BME280;22878;48.616;35.326;2023-02-28T12:31:17;101971.73;;;4.71;100.00
36964;BME280;22878;48.616;35.326;2023-02-28T12:33:47;101973.33;;;4.67;100.00
36964;BME280;22878;48.616;35.326;2023-02-28T12:36:16;101974.39;;;4.62;100.00
36964;BME280;22878;48.616;35.326;2023-02-28T12:39:03;101979.13;;;4.53;100.00
36964;BME280;22878;48.616;35.326;2023-02-28T12:44:32;101977.17;;;4.26;100.00
36964;BME280;22878;48.616;35.326;2023-02-28T12:47:04;101983.36;;;4.11;100.00
36964;BME280;22878;48.616;35.326;2023-02-28T12:49:42;101983.52;;;3.96;100.00
36964;BME280;22878;48.616;35.326;2023-02-28T12:52:10;101981.23;;;3.86;100.00
36964;BME280;22878;48.616;35.326;2023-02-28T12:54:52;101979.06;;;3.69;100.00
36964;BME280;22878;48.616;35.326;2023-02-28T12:57:36;101973.48;;;3.64;100.00
36964;BME280;22878;48.616;35.326;2023-02-28T13:00:12;101976.81;;;3.58;100.00
36964;BME280;22878;48.616;35.326;2023-02-28T13:14:25;101950.75;;;2.92;100.00
36964;BME280;22878;48.616;35.326;2023-02-28T13:19:34;101947.34;;;3.02;100.00
36964;BME280;22878;48.616;35.326;2023-02-28T13:22:00;101951.09;;;3.12;100.00
36964;BME280;22878;48.616;35.326;2023-02-28T13:24:46;101949.68;;;3.13;100.00
36964;BME280;22878;48.616;35.326;2023-02-28T13:29:42;101945.38;;;2.89;100.00
36964;BME280;22878;48.616;35.326;2023-02-28T13:39:54;101936.59;;;2.78;100.00
36964;BME280;22878;48.616;35.326;2023-02-28T13:42:35;101938.47;;;2.81;100.00
36964;BME280;22878;48.616;35.326;2023-02-28T13:47:48;101937.93;;;2.87;100.00
36964;BME280;22878;48.616;35.326;2023-02-28T13:58:48;101934.88;;;2.55;100.00
36964;BME280;22878;48.616;35.326;2023-02-28T14:06:57;101922.27;;;2.35;100.00
36964;BME280;22878;48.616;35.326;2023-02-28T14:09:35;101924.00;;;2.27;100.00
36964;BME280;22878;48.616;35.326;2023-02-28T14:17:58;101913.86;;;2.04;100.00
36964;BME280;22878;48.616;35.326;2023-02-28T14:20:29;101912.95;;;1.96;100.00
36964;BME280;22878;48.616;35.326;2023-02-28T14:31:28;101919.66;;;1.64;100.00
36964;BME280;22878;48.616;35.326;2023-02-28T14:34:12;101922.04;;;1.66;100.00
36964;BME280;22878;48.616;35.326;2023-02-28T14:36:42;101920.11;;;1.65;100.00
36964;BME280;22878;48.616;35.326;2023-02-28T14:39:17;101920.21;;;1.67;100.00
36964;BME280;22878;48.616;35.326;2023-02-28T14:41:44;101916.66;;;1.66;100.00
36964;BME280;22878;48.616;35.326;2023-02-28T14:46:42;101913.76;;;1.55;100.00
36964;BME280;22878;48.616;35.326;2023-02-28T14:49:21;101914.62;;;1.53;100.00
36964;BME280;22878;48.616;35.326;2023-02-28T14:54:35;101917.95;;;1.47;100.00
36964;BME280;22878;48.616;35.326;2023-02-28T14:57:02;101919.05;;;1.42;100.00
36964;BME280;22878;48.616;35.326;2023-02-28T14:59:33;101922.62;;;1.30;100.00
36964;BME280;22878;48.616;35.326;2023-02-28T15:02:18;101924.02;;;1.25;100.00
36964;BME280;22878;48.616;35.326;2023-02-28T15:04:53;101924.85;;;1.23;100.00
36964;BME280;22878;48.616;35.326;2023-02-28T15:07:19;101926.00;;;1.19;100.00
36964;BME280;22878;48.616;35.326;2023-02-28T15:09:45;101924.48;;;1.11;100.00
36964;BME280;22878;48.616;35.326;2023-02-28T15:12:14;101926.66;;;1.06;100.00
36964;BME280;22878;48.616;35.326;2023-02-28T15:14:43;101929.41;;;0.99;100.00
36964;BME280;22878;48.616;35.326;2023-02-28T15:17:17;101925.11;;;0.90;100.00